Time;durP1;ratioP1;P1;durP2;ratioP2;P2;SDS_P1;SDS_P2;PMS_P1;PMS_P2;Temp;Humidity;BMP_temperature;BMP_pressure;BME280_temperature;BME280_humidity;BME280_pressure;Samples;Min_cycle;Max_cycle;Signal;HPM_P1;HPM_P2
2022/01/02 00:02:09;;;;;;;3.88;2.22;;;14.30;97.00;;;;;;5046884;28;20030;-69
2022/01/02 00:04:43;;;;;;;2.20;1.10;;;14.30;96.90;;;;;;5048159;28;20045;-69
2022/01/02 00:07:13;;;;;;;5.63;2.03;;;14.30;96.90;;;;;;5048316;28;20116;-69
2022/01/02 00:09:47;;;;;;;1.73;1.60;;;14.30;96.90;;;;;;5044226;28;20030;-69
2022/01/02 00:12:25;;;;;;;8.48;3.10;;;14.30;96.90;;;;;;5038737;28;20037;-69
2022/01/02 00:14:56;;;;;;;4.38;2.22;;;14.30;96.80;;;;;;5042138;28;20033;-69
2022/01/02 00:17:23;;;;;;;3.55;1.33;;;14.30;96.80;;;;;;5033625;28;20495;-69
2022/01/02 00:19:56;;;;;;;4.10;2.05;;;14.30;96.80;;;;;;5035318;28;20124;-70
2022/01/02 00:22:36;;;;;;;2.97;1.63;;;14.40;96.70;;;;;;5045454;28;20436;-69
2022/01/02 00:25:18;;;;;;;3.53;2.20;;;14.30;96.60;;;;;;5051649;28;20025;-69
2022/01/02 00:27:47;;;;;;;3.20;1.75;;;14.30;96.60;;;;;;5054211;28;20048;-69
2022/01/02 00:30:13;;;;;;;3.47;1.65;;;14.30;96.60;;;;;;5045878;28;20132;-69
2022/01/02 00:32:42;;;;;;;3.40;1.88;;;14.30;96.60;;;;;;5033862;28;20551;-69
2022/01/02 00:35:08;;;;;;;3.47;2.30;;;14.30;96.70;;;;;;5042722;28;20025;-69
2022/01/02 00:37:34;;;;;;;5.38;1.92;;;14.30;97.00;;;;;;5052994;28;20081;-69
2022/01/02 00:40:00;;;;;;;4.72;1.75;;;14.20;96.70;;;;;;5053965;28;20021;-69
2022/01/02 00:42:30;;;;;;;4.97;1.83;;;14.20;96.70;;;;;;5051003;28;20040;-69
2022/01/02 00:45:00;;;;;;;2.13;1.42;;;14.20;96.80;;;;;;5032952;28;20036;-70
2022/01/02 00:47:44;;;;;;;0.98;0.88;;;14.20;96.80;;;;;;5051169;28;20472;-69
2022/01/02 00:50:12;;;;;;;2.53;2.08;;;14.20;96.70;;;;;;5053281;28;20036;-69
2022/01/02 00:52:43;;;;;;;2.08;1.27;;;14.20;96.70;;;;;;5051646;28;20526;-69
2022/01/02 00:55:17;;;;;;;4.70;1.58;;;14.20;96.70;;;;;;5050072;28;20039;-70
2022/01/02 00:57:47;;;;;;;1.75;0.95;;;14.20;96.70;;;;;;5042493;28;20041;-69
2022/01/02 01:00:15;;;;;;;2.90;1.48;;;14.30;96.70;;;;;;5040095;28;20025;-69
2022/01/02 01:02:53;;;;;;;4.50;2.38;;;14.30;96.70;;;;;;5041402;28;20029;-69
2022/01/02 01:05:18;;;;;;;2.50;1.35;;;14.20;96.70;;;;;;5044633;28;20033;-70
2022/01/02 01:07:57;;;;;;;3.13;1.67;;;14.30;96.70;;;;;;5045691;28;20366;-69
2022/01/02 01:10:25;;;;;;;8.80;2.58;;;14.30;96.70;;;;;;5050351;28;20519;-70
2022/01/02 01:13:00;;;;;;;5.07;2.75;;;14.20;96.70;;;;;;5033781;28;20477;-69
2022/01/02 01:15:28;;;;;;;11.32;2.30;;;14.30;96.70;;;;;;5050783;28;20112;-69
2022/01/02 01:17:58;;;;;;;7.10;2.58;;;14.30;96.60;;;;;;5053110;28;20078;-69
2022/01/02 01:20:36;;;;;;;4.28;2.50;;;14.30;96.60;;;;;;5052025;28;20045;-69
2022/01/02 01:23:02;;;;;;;2.08;1.33;;;14.30;96.70;;;;;;5052488;28;20025;-69
2022/01/02 01:25:28;;;;;;;3.85;2.13;;;14.20;96.70;;;;;;5031921;28;20481;-69
2022/01/02 01:27:55;;;;;;;9.65;2.72;;;14.20;96.70;;;;;;5033790;28;20053;-69
2022/01/02 01:30:24;;;;;;;6.70;2.90;;;14.20;96.70;;;;;;5048267;28;20477;-69
2022/01/02 01:32:52;;;;;;;5.32;2.05;;;14.20;96.70;;;;;;5048145;28;20033;-69
2022/01/02 01:35:19;;;;;;;8.32;2.40;;;14.20;96.70;;;;;;5042359;28;20025;-69
2022/01/02 01:37:54;;;;;;;2.75;1.60;;;14.20;96.80;;;;;;5036629;28;20021;-69
2022/01/02 01:40:20;;;;;;;3.90;1.27;;;14.20;96.80;;;;;;5050808;28;20029;-70
2022/01/02 01:43:02;;;;;;;5.05;2.45;;;14.20;96.90;;;;;;5051305;28;20029;-69
2022/01/02 01:45:33;;;;;;;4.95;2.33;;;14.10;96.80;;;;;;5050600;28;20025;-70
2022/01/02 01:48:06;;;;;;;4.90;2.38;;;14.10;96.80;;;;;;5040072;28;20029;-70
2022/01/02 01:50:37;;;;;;;3.33;2.03;;;14.10;96.90;;;;;;5034198;28;20052;-70
2022/01/02 01:53:04;;;;;;;6.10;2.55;;;14.10;96.90;;;;;;5042154;28;20091;-70
2022/01/02 01:55:33;;;;;;;4.05;1.83;;;14.10;97.00;;;;;;5032201;28;20029;-70
2022/01/02 01:58:01;;;;;;;5.90;2.00;;;14.10;97.00;;;;;;5031044;28;20041;-70
2022/01/02 02:00:29;;;;;;;7.63;2.72;;;14.10;97.10;;;;;;5050028;28;20428;-70
2022/01/02 02:03:01;;;;;;;9.75;2.88;;;14.10;97.00;;;;;;5037322;28;20025;-70
2022/01/02 02:05:27;;;;;;;3.55;2.55;;;14.10;97.10;;;;;;5043803;28;20562;-69
2022/01/02 02:07:53;;;;;;;3.45;2.45;;;14.00;97.10;;;;;;5039198;28;20028;-69
2022/01/02 02:10:27;;;;;;;6.10;2.90;;;14.10;97.10;;;;;;5037358;28;20128;-69
2022/01/02 02:12:58;;;;;;;6.85;3.45;;;14.10;97.10;;;;;;5040385;28;20071;-69
2022/01/02 02:15:27;;;;;;;8.88;3.05;;;14.10;97.10;;;;;;5034986;28;20028;-69
2022/01/02 02:17:53;;;;;;;7.72;2.65;;;14.10;97.10;;;;;;5041357;28;20116;-69
2022/01/02 02:20:32;;;;;;;6.80;2.47;;;14.10;97.10;;;;;;5037510;28;20018;-69
2022/01/02 02:23:01;;;;;;;4.15;2.65;;;14.00;97.20;;;;;;5050995;28;20118;-69
2022/01/02 02:25:32;;;;;;;4.20;2.83;;;14.00;97.20;;;;;;5059010;28;20051;-69
2022/01/02 02:27:59;;;;;;;3.35;1.77;;;14.00;97.10;;;;;;5057335;28;20024;-70
2022/01/02 02:30:28;;;;;;;2.78;1.88;;;14.10;97.20;;;;;;5047517;28;20041;-69
2022/01/02 02:32:55;;;;;;;5.30;2.45;;;14.00;97.20;;;;;;5055066;28;20033;-70
2022/01/02 02:35:22;;;;;;;8.85;3.17;;;14.00;97.20;;;;;;5052877;28;20451;-70
2022/01/02 02:37:48;;;;;;;7.82;2.65;;;14.00;97.20;;;;;;5049303;28;20056;-69
2022/01/02 02:40:22;;;;;;;6.38;3.05;;;14.10;97.20;;;;;;5048408;28;20492;-69
2022/01/02 02:50:56;;;;;;;10.27;2.28;;;14.10;97.20;;;;;;5045778;28;20037;-69
2022/01/02 02:53:22;;;;;;;3.00;1.73;;;14.10;97.20;;;;;;5057558;28;20025;-69
2022/01/02 02:55:54;;;;;;;10.90;2.85;;;14.00;97.30;;;;;;5045792;28;20029;-69
2022/01/02 03:01:00;;;;;;;3.75;2.22;;;14.00;97.30;;;;;;5049040;28;20029;-69
2022/01/02 03:03:26;;;;;;;4.05;2.25;;;14.00;97.30;;;;;;5039279;28;20025;-69
2022/01/02 03:05:52;;;;;;;1.52;1.42;;;14.00;97.30;;;;;;5048603;28;20389;-69
2022/01/02 03:08:18;;;;;;;33.08;3.45;;;14.00;97.30;;;;;;5056066;28;20025;-69
2022/01/02 03:10:44;;;;;;;6.97;2.97;;;14.00;97.30;;;;;;5051322;28;20512;-69
2022/01/02 03:13:11;;;;;;;6.78;2.45;;;14.00;97.30;;;;;;5041162;28;20065;-69
2022/01/02 03:15:37;;;;;;;6.32;2.67;;;14.00;97.40;;;;;;5044396;28;20029;-69
2022/01/02 03:18:03;;;;;;;8.75;3.40;;;14.00;97.40;;;;;;5044793;28;20032;-69
2022/01/02 03:20:28;;;;;;;5.43;2.17;;;14.00;97.40;;;;;;5043029;28;20441;-69
2022/01/02 03:22:54;;;;;;;6.97;3.30;;;14.00;97.40;;;;;;5043567;28;20052;-70
2022/01/02 03:25:20;;;;;;;3.47;2.45;;;14.00;97.30;;;;;;5044976;28;20063;-69
2022/01/02 03:27:46;;;;;;;5.63;3.17;;;14.00;97.30;;;;;;5044803;28;20028;-70
2022/01/02 03:30:13;;;;;;;2.70;1.70;;;14.00;97.30;;;;;;5055233;28;20556;-69
2022/01/02 03:32:40;;;;;;;6.78;2.90;;;14.10;97.30;;;;;;5053016;28;20389;-70
2022/01/02 03:35:07;;;;;;;13.25;3.67;;;14.00;97.30;;;;;;5045643;28;20032;-69
2022/01/02 03:37:34;;;;;;;4.55;3.08;;;14.00;97.30;;;;;;5048093;28;20025;-69
2022/01/02 03:40:03;;;;;;;5.80;2.65;;;14.00;97.20;;;;;;5033339;28;20055;-69
2022/01/02 03:42:30;;;;;;;3.53;1.60;;;14.10;97.30;;;;;;5033667;28;20022;-70
2022/01/02 03:44:58;;;;;;;2.78;1.58;;;14.10;97.20;;;;;;5042321;28;20147;-69
2022/01/02 03:47:24;;;;;;;4.78;2.03;;;14.10;97.20;;;;;;5046720;28;20369;-70
2022/01/02 03:49:51;;;;;;;5.47;3.08;;;14.10;97.20;;;;;;5047771;28;20020;-70
2022/01/02 03:52:17;;;;;;;6.00;2.13;;;14.00;97.10;;;;;;5041468;28;20112;-69
2022/01/02 03:54:42;;;;;;;16.48;2.70;;;14.10;97.10;;;;;;5050416;28;20021;-69
2022/01/02 03:57:08;;;;;;;2.13;1.70;;;14.10;97.10;;;;;;5054243;28;20447;-69
2022/01/02 03:59:34;;;;;;;11.40;2.67;;;14.10;97.10;;;;;;5044330;28;20104;-69
2022/01/02 04:02:00;;;;;;;4.70;3.15;;;14.10;97.10;;;;;;5033244;28;20029;-70
2022/01/02 04:04:28;;;;;;;3.65;2.03;;;14.00;97.10;;;;;;5045467;28;20130;-69
2022/01/02 04:06:54;;;;;;;1.20;1.05;;;14.00;97.10;;;;;;5039878;28;20029;-69
2022/01/02 04:09:21;;;;;;;3.50;2.13;;;14.10;97.10;;;;;;5052621;28;20425;-70
2022/01/02 04:11:49;;;;;;;3.70;2.05;;;14.00;97.00;;;;;;5043475;28;20037;-69
2022/01/02 04:14:15;;;;;;;3.20;1.55;;;14.00;97.10;;;;;;5054392;28;20029;-69
2022/01/02 04:16:40;;;;;;;7.07;2.13;;;14.00;97.10;;;;;;5040353;28;20038;-69
2022/01/02 04:19:08;;;;;;;3.97;1.40;;;14.00;97.10;;;;;;5043973;28;20030;-69
2022/01/02 04:21:33;;;;;;;3.92;1.42;;;14.00;97.10;;;;;;5052327;28;20040;-70
2022/01/02 04:23:59;;;;;;;5.78;2.67;;;14.00;97.10;;;;;;5038919;28;20074;-70
2022/01/02 04:26:27;;;;;;;1.42;1.33;;;14.00;97.10;;;;;;5044651;28;20046;-70
2022/01/02 04:28:53;;;;;;;5.68;2.97;;;14.00;97.10;;;;;;5047951;28;20048;-70
2022/01/02 04:31:18;;;;;;;3.47;2.33;;;14.00;97.10;;;;;;5044630;28;20037;-70
2022/01/02 04:33:45;;;;;;;7.55;3.15;;;14.00;97.10;;;;;;5032539;28;20045;-70
2022/01/02 04:36:11;;;;;;;12.02;3.70;;;14.00;97.10;;;;;;5042340;28;20040;-69
2022/01/02 04:38:38;;;;;;;7.30;3.08;;;14.00;97.20;;;;;;5039318;28;20547;-69
2022/01/02 04:41:04;;;;;;;10.10;3.05;;;13.90;97.20;;;;;;5042711;28;20072;-69
2022/01/02 04:43:30;;;;;;;5.32;2.92;;;13.90;97.30;;;;;;5034759;28;20017;-70
2022/01/02 04:45:56;;;;;;;8.38;2.47;;;13.90;97.40;;;;;;5042485;28;20060;-69
2022/01/02 04:48:23;;;;;;;4.88;2.67;;;13.90;97.40;;;;;;5033566;28;20068;-69
2022/01/02 04:50:49;;;;;;;2.95;1.60;;;13.80;97.40;;;;;;5032061;28;20440;-69
2022/01/02 04:53:15;;;;;;;4.85;2.20;;;13.90;97.50;;;;;;5036458;28;20029;-69
2022/01/02 04:55:41;;;;;;;9.60;3.33;;;13.90;97.50;;;;;;5045112;28;20034;-69
2022/01/02 04:58:07;;;;;;;3.08;2.25;;;13.90;97.40;;;;;;5045731;28;20052;-69
2022/01/02 05:00:33;;;;;;;2.67;2.35;;;13.90;97.50;;;;;;5041539;28;20025;-69
2022/01/02 05:02:59;;;;;;;10.10;2.47;;;13.90;97.50;;;;;;5037702;28;20030;-69
2022/01/02 05:05:24;;;;;;;4.00;2.60;;;13.90;97.50;;;;;;5031431;28;20071;-69
2022/01/02 05:07:50;;;;;;;3.58;2.33;;;13.80;97.50;;;;;;5045021;28;20021;-69
2022/01/02 05:10:16;;;;;;;6.60;3.63;;;13.80;97.50;;;;;;5032218;28;20048;-69
2022/01/02 05:12:42;;;;;;;8.35;2.67;;;13.80;97.60;;;;;;5050999;28;20024;-69
2022/01/02 05:15:09;;;;;;;6.28;3.08;;;13.80;97.60;;;;;;5043008;28;20426;-69
2022/01/02 05:17:35;;;;;;;6.28;2.72;;;13.80;97.60;;;;;;5049135;28;20393;-69
2022/01/02 05:20:01;;;;;;;8.88;2.70;;;13.80;97.70;;;;;;5031415;28;20038;-69
2022/01/02 05:22:28;;;;;;;8.73;2.78;;;13.80;97.70;;;;;;5034863;28;20025;-69
2022/01/02 05:24:54;;;;;;;7.57;3.58;;;13.80;97.70;;;;;;5051399;28;20124;-69
2022/01/02 05:27:20;;;;;;;4.63;2.30;;;13.80;97.70;;;;;;5039353;28;20021;-69
2022/01/02 05:29:47;;;;;;;2.95;1.92;;;13.80;97.70;;;;;;5051645;28;20123;-70
2022/01/02 05:32:16;;;;;;;2.78;2.05;;;13.80;97.80;;;;;;5033049;28;20105;-69
2022/01/02 05:34:42;;;;;;;8.35;3.83;;;13.80;97.90;;;;;;5043535;28;20025;-69
2022/01/02 05:37:08;;;;;;;7.28;3.50;;;13.80;97.90;;;;;;5052582;28;20025;-70
2022/01/02 05:39:35;;;;;;;10.88;3.08;;;13.80;97.90;;;;;;5039227;28;20033;-69
2022/01/02 05:42:01;;;;;;;5.53;2.83;;;13.80;97.90;;;;;;5044666;28;20026;-70
2022/01/02 05:44:27;;;;;;;2.03;1.52;;;13.80;97.90;;;;;;5045551;28;20378;-69
2022/01/02 05:46:53;;;;;;;9.82;1.75;;;13.80;97.90;;;;;;5038680;28;20017;-70
2022/01/02 05:49:20;;;;;;;3.72;2.75;;;13.80;97.80;;;;;;5038707;28;20124;-70
2022/01/02 05:51:45;;;;;;;12.00;2.80;;;13.90;97.80;;;;;;5051181;28;20127;-69
2022/01/02 05:54:11;;;;;;;7.38;2.75;;;13.80;97.80;;;;;;5043740;28;20104;-70
2022/01/02 05:56:37;;;;;;;3.70;2.08;;;13.90;97.80;;;;;;5039972;28;20029;-69
2022/01/02 05:59:03;;;;;;;4.10;2.28;;;13.90;97.80;;;;;;5043431;28;20128;-69
2022/01/02 06:01:35;;;;;;;8.52;2.85;;;13.90;97.70;;;;;;5032516;28;20484;-70
2022/01/02 06:04:01;;;;;;;2.95;1.65;;;14.00;97.70;;;;;;5051275;28;20091;-69
2022/01/02 06:06:27;;;;;;;3.75;2.53;;;13.90;97.60;;;;;;5037685;28;20071;-69
2022/01/02 06:08:53;;;;;;;6.20;1.92;;;14.00;97.60;;;;;;5041479;28;20436;-70
2022/01/02 06:11:19;;;;;;;5.13;2.78;;;14.10;97.50;;;;;;5031232;28;20061;-70
2022/01/02 06:13:45;;;;;;;5.57;2.03;;;14.10;97.40;;;;;;5040729;28;20397;-69
2022/01/02 06:16:12;;;;;;;3.47;1.60;;;14.10;97.40;;;;;;5034573;28;20389;-69
2022/01/02 06:18:38;;;;;;;5.15;2.25;;;14.00;97.30;;;;;;5051050;28;20025;-69
2022/01/02 06:21:04;;;;;;;1.58;1.48;;;14.10;97.30;;;;;;5034018;28;20394;-69
2022/01/02 06:23:30;;;;;;;5.72;1.85;;;14.10;97.30;;;;;;5042172;28;20388;-69
2022/01/02 06:25:56;;;;;;;2.38;1.45;;;14.10;97.30;;;;;;5046649;28;20029;-69
2022/01/02 06:28:22;;;;;;;3.42;1.70;;;14.10;97.30;;;;;;5030449;28;20036;-69
2022/01/02 06:30:48;;;;;;;4.95;1.95;;;14.10;97.30;;;;;;5030707;28;20111;-70
2022/01/02 06:33:14;;;;;;;5.80;3.10;;;14.10;97.30;;;;;;5032268;28;20049;-70
2022/01/02 06:35:40;;;;;;;5.38;2.22;;;14.10;97.30;;;;;;5043237;28;20386;-69
2022/01/02 06:38:17;;;;;;;5.90;2.03;;;14.00;97.40;;;;;;5032101;28;20506;-69
2022/01/02 06:40:45;;;;;;;11.23;2.70;;;14.00;97.50;;;;;;5042285;28;20108;-69
2022/01/02 06:43:16;;;;;;;4.88;1.98;;;14.00;97.50;;;;;;5034394;28;20025;-69
2022/01/02 06:45:43;;;;;;;2.78;1.77;;;14.00;97.60;;;;;;5041069;28;20124;-69
2022/01/02 06:48:09;;;;;;;6.35;3.20;;;14.00;97.60;;;;;;5030636;28;20025;-69
2022/01/02 06:50:35;;;;;;;11.05;2.25;;;13.90;97.60;;;;;;5050094;28;20402;-69
2022/01/02 06:53:02;;;;;;;9.00;2.20;;;13.90;97.70;;;;;;5046368;28;20030;-69
2022/01/02 06:55:28;;;;;;;4.90;2.35;;;14.00;97.70;;;;;;5039928;28;20460;-70
2022/01/02 06:57:54;;;;;;;6.35;2.60;;;14.00;97.70;;;;;;5030151;28;20099;-69
2022/01/02 07:00:20;;;;;;;4.30;1.67;;;14.00;97.70;;;;;;5049621;28;20032;-69
2022/01/02 07:02:46;;;;;;;6.20;1.95;;;13.90;97.70;;;;;;5038774;28;20474;-69
2022/01/02 07:05:12;;;;;;;5.28;1.95;;;13.90;97.70;;;;;;5038167;28;20037;-69
2022/01/02 07:07:44;;;;;;;8.43;1.75;;;14.00;97.70;;;;;;5054097;28;20033;-69
2022/01/02 07:10:12;;;;;;;4.57;1.92;;;14.00;97.70;;;;;;5034425;28;20033;-69
2022/01/02 07:12:38;;;;;;;5.15;2.05;;;14.00;97.80;;;;;;5048076;28;20036;-70
2022/01/02 07:15:08;;;;;;;1.85;1.08;;;14.00;97.80;;;;;;5044072;28;20036;-69
2022/01/02 07:17:34;;;;;;;8.13;2.63;;;14.00;97.80;;;;;;5052128;28;20040;-69
2022/01/02 07:20:00;;;;;;;4.75;2.15;;;14.00;97.90;;;;;;5034818;28;20037;-68
2022/01/02 07:22:26;;;;;;;5.82;2.00;;;14.00;97.90;;;;;;5034900;28;20041;-69
2022/01/02 07:24:52;;;;;;;30.45;3.33;;;13.90;97.90;;;;;;5034112;28;20030;-70
2022/01/02 07:27:19;;;;;;;4.50;2.25;;;13.90;98.00;;;;;;5034433;28;20108;-70
2022/01/02 07:29:46;;;;;;;7.63;2.55;;;13.90;98.00;;;;;;5034652;28;20079;-69
2022/01/02 07:32:12;;;;;;;5.28;2.05;;;13.90;98.00;;;;;;5045664;28;20492;-69
2022/01/02 07:34:37;;;;;;;4.70;2.17;;;13.90;98.10;;;;;;5050071;28;20029;-69
2022/01/02 07:37:03;;;;;;;9.50;3.25;;;13.90;98.20;;;;;;5047095;28;20064;-69
2022/01/02 07:39:29;;;;;;;8.88;2.78;;;13.80;98.30;;;;;;5035469;28;20518;-69
2022/01/02 07:41:54;;;;;;;5.93;2.28;;;13.80;98.40;;;;;;5047366;28;20088;-69
2022/01/02 07:44:27;;;;;;;6.57;1.77;;;13.80;98.60;;;;;;5040433;28;20036;-69
2022/01/02 07:46:53;;;;;;;11.45;2.70;;;13.80;98.70;;;;;;5040705;28;20079;-70
2022/01/02 07:49:19;;;;;;;3.65;1.75;;;13.70;98.70;;;;;;5055145;28;20033;-69
2022/01/02 07:51:44;;;;;;;4.22;1.75;;;13.70;98.80;;;;;;5040761;28;20045;-70
2022/01/02 07:54:13;;;;;;;8.10;1.80;;;13.80;98.80;;;;;;5040802;28;20017;-69
2022/01/02 07:56:40;;;;;;;2.50;1.70;;;13.80;98.80;;;;;;5039739;28;20091;-69
2022/01/02 07:59:06;;;;;;;8.90;1.83;;;13.80;99.20;;;;;;5043392;28;20048;-69
2022/01/02 08:01:32;;;;;;;5.90;2.05;;;13.80;98.90;;;;;;5037631;28;20030;-69
2022/01/02 08:03:57;;;;;;;6.82;2.28;;;13.80;98.90;;;;;;5034069;28;20366;-69
2022/01/02 08:06:23;;;;;;;3.97;1.90;;;13.70;99.00;;;;;;5040173;28;20397;-69
2022/01/02 08:08:49;;;;;;;3.60;2.03;;;13.70;99.10;;;;;;5035900;28;20116;-69
2022/01/02 08:11:16;;;;;;;6.22;2.25;;;13.70;99.10;;;;;;5035772;28;20047;-69
2022/01/02 08:13:43;;;;;;;3.63;1.73;;;13.70;99.10;;;;;;5032896;28;20117;-69
2022/01/02 08:16:08;;;;;;;6.88;2.50;;;13.80;99.40;;;;;;5031876;28;20560;-69
2022/01/02 08:18:34;;;;;;;7.43;2.45;;;13.80;99.10;;;;;;5035853;28;20028;-69
2022/01/02 08:21:08;;;;;;;5.15;1.83;;;13.80;99.10;;;;;;5025355;28;20029;-69
2022/01/02 08:23:34;;;;;;;4.20;1.50;;;13.80;99.10;;;;;;5035814;28;20056;-69
2022/01/02 08:26:01;;;;;;;6.57;2.47;;;13.80;99.10;;;;;;5034856;28;20048;-69
2022/01/02 08:28:26;;;;;;;8.68;2.80;;;13.80;99.20;;;;;;5031210;28;20090;-69
2022/01/02 08:30:58;;;;;;;9.32;2.28;;;13.70;99.20;;;;;;5032352;28;20124;-70
2022/01/02 08:33:23;;;;;;;7.03;2.97;;;13.70;99.30;;;;;;5035744;28;20025;-69
2022/01/02 08:35:49;;;;;;;7.28;2.50;;;13.70;99.30;;;;;;5030560;28;20476;-69
2022/01/02 08:38:15;;;;;;;9.00;2.25;;;13.70;99.40;;;;;;5035932;28;20029;-70
2022/01/02 08:40:41;;;;;;;6.18;2.72;;;13.70;99.40;;;;;;5046140;28;20556;-69
2022/01/02 08:43:08;;;;;;;3.80;2.13;;;13.70;99.40;;;;;;5031981;28;20032;-69
2022/01/02 08:45:35;;;;;;;12.60;1.80;;;13.70;99.30;;;;;;5053176;28;20398;-70
2022/01/02 08:48:01;;;;;;;5.70;2.38;;;13.70;99.30;;;;;;5051830;28;20037;-69
2022/01/02 08:50:27;;;;;;;4.13;2.28;;;13.70;99.20;;;;;;5051605;28;20044;-69
2022/01/02 08:52:53;;;;;;;10.75;2.92;;;13.70;99.20;;;;;;5038507;28;20365;-70
2022/01/02 08:55:21;;;;;;;4.72;2.42;;;13.80;99.20;;;;;;5033455;28;20029;-70
2022/01/02 08:57:47;;;;;;;6.47;1.58;;;13.70;99.20;;;;;;5031022;28;20500;-70
2022/01/02 09:00:13;;;;;;;5.38;2.05;;;13.70;99.20;;;;;;5048862;28;20036;-70
2022/01/02 09:02:41;;;;;;;3.33;2.05;;;13.70;99.20;;;;;;5035050;28;20401;-70
2022/01/02 09:05:08;;;;;;;2.97;1.95;;;13.80;99.20;;;;;;5030967;28;20029;-70
2022/01/02 09:07:34;;;;;;;5.05;2.42;;;13.70;99.20;;;;;;5044277;28;20025;-82
2022/01/02 09:10:03;;;;;;;5.78;2.70;;;13.70;99.20;;;;;;5037867;28;20472;-70
2022/01/02 09:12:28;;;;;;;6.18;2.75;;;13.70;99.20;;;;;;5052358;28;20025;-68
2022/01/02 09:14:54;;;;;;;2.88;1.63;;;13.70;99.10;;;;;;5033372;28;20025;-70
2022/01/02 09:17:20;;;;;;;6.00;2.80;;;13.80;99.10;;;;;;5039517;28;20539;-70
2022/01/02 09:19:45;;;;;;;3.88;1.80;;;13.80;99.00;;;;;;5046714;28;20166;-69
2022/01/02 09:22:11;;;;;;;2.17;1.52;;;13.80;99.00;;;;;;5046596;28;20477;-69
2022/01/02 09:24:37;;;;;;;6.63;1.65;;;13.80;99.00;;;;;;5046987;28;20408;-70
2022/01/02 09:27:02;;;;;;;3.33;1.65;;;13.80;98.90;;;;;;5046216;28;20614;-72
2022/01/02 09:29:28;;;;;;;5.55;2.33;;;13.80;98.90;;;;;;5049072;28;20040;-69
2022/01/02 09:31:54;;;;;;;2.33;1.27;;;13.80;98.80;;;;;;5049473;28;20072;-69
2022/01/02 09:34:19;;;;;;;3.65;1.33;;;13.80;98.80;;;;;;5049619;28;20028;-69
2022/01/02 09:36:45;;;;;;;2.72;1.48;;;13.80;98.80;;;;;;5046670;28;20495;-70
2022/01/02 09:39:11;;;;;;;3.95;1.92;;;13.80;98.80;;;;;;5045179;28;20022;-70
2022/01/02 09:41:38;;;;;;;4.78;1.70;;;13.80;98.70;;;;;;5048769;28;20056;-70
2022/01/02 09:44:05;;;;;;;2.05;1.55;;;13.80;98.70;;;;;;5048292;28;20166;-69
2022/01/02 09:46:31;;;;;;;2.47;1.33;;;13.80;98.80;;;;;;5048144;28;20036;-70
2022/01/02 09:48:57;;;;;;;3.95;2.35;;;13.80;98.80;;;;;;5047902;28;20022;-70
2022/01/02 09:51:26;;;;;;;3.15;1.67;;;13.80;98.80;;;;;;5047369;28;20097;-69
2022/01/02 09:53:54;;;;;;;4.60;2.60;;;13.80;98.80;;;;;;5047187;28;20036;-70
2022/01/02 09:56:20;;;;;;;3.58;2.00;;;13.80;98.80;;;;;;5045719;28;20025;-69
2022/01/02 09:58:46;;;;;;;4.63;2.08;;;13.80;98.80;;;;;;5046456;28;20041;-76
2022/01/02 10:01:19;;;;;;;2.08;1.30;;;13.80;98.80;;;;;;5046647;28;20116;-69
2022/01/02 10:03:50;;;;;;;3.47;1.80;;;13.80;98.80;;;;;;5045124;28;20025;-69
2022/01/02 10:06:19;;;;;;;5.72;1.90;;;13.70;98.80;;;;;;5046244;28;20098;-70
2022/01/02 10:08:46;;;;;;;3.08;1.80;;;13.70;98.90;;;;;;5046812;28;20082;-69
2022/01/02 10:13:44;;;;;;;4.13;2.33;;;13.70;99.00;;;;;;5047659;28;20028;-69
2022/01/02 10:16:40;;;;;;;3.60;2.20;;;13.70;98.90;;;;;;5050147;28;20033;-70
2022/01/02 10:19:36;;;;;;;6.97;2.70;;;13.70;98.90;;;;;;5045752;28;20448;-70
2022/01/02 10:22:06;;;;;;;6.35;1.98;;;13.70;98.90;;;;;;5048002;28;20033;-69
2022/01/02 10:24:36;;;;;;;2.72;1.67;;;13.70;98.90;;;;;;5050994;28;20037;-70
2022/01/02 10:27:17;;;;;;;5.75;2.85;;;13.70;98.80;;;;;;5047404;28;20150;-69
2022/01/02 10:29:48;;;;;;;4.72;2.60;;;13.70;98.80;;;;;;5049859;28;20110;-69
2022/01/02 10:32:35;;;;;;;4.70;2.45;;;13.70;98.80;;;;;;5048930;28;20086;-69
2022/01/02 10:35:21;;;;;;;5.40;2.03;;;13.70;98.80;;;;;;5039087;28;20025;-70
2022/01/02 10:37:52;;;;;;;6.18;2.80;;;13.80;98.80;;;;;;5045745;28;20137;-69
2022/01/02 10:40:29;;;;;;;6.53;2.80;;;13.70;98.80;;;;;;5052666;28;20036;-69
2022/01/02 10:42:55;;;;;;;7.18;3.15;;;13.70;98.90;;;;;;5053538;28;20108;-69
2022/01/02 10:45:47;;;;;;;6.30;3.00;;;13.70;98.90;;;;;;5054134;28;20029;-69
2022/01/02 10:48:15;;;;;;;8.55;3.22;;;13.60;98.90;;;;;;5054177;28;20029;-69
2022/01/02 10:51:06;;;;;;;6.82;3.03;;;13.60;99.00;;;;;;5050446;28;20537;-69
2022/01/02 10:53:34;;;;;;;9.40;3.45;;;13.60;99.00;;;;;;5052538;28;20036;-69
2022/01/02 10:56:00;;;;;;;12.98;3.83;;;13.50;99.00;;;;;;5052873;28;20025;-68
2022/01/02 10:58:27;;;;;;;9.82;4.43;;;13.50;99.10;;;;;;5054036;28;20049;-69
2022/01/02 11:00:55;;;;;;;11.18;4.10;;;13.50;99.20;;;;;;5053757;28;20477;-69
2022/01/02 11:03:24;;;;;;;21.42;4.10;;;13.40;99.30;;;;;;5048339;28;20392;-69
2022/01/02 11:05:56;;;;;;;13.50;5.43;;;13.40;99.40;;;;;;5053988;28;20029;-69
2022/01/02 11:08:24;;;;;;;10.13;5.03;;;13.40;99.40;;;;;;5053929;28;20024;-69
2022/01/02 11:10:55;;;;;;;13.98;5.03;;;13.40;99.40;;;;;;5048055;28;20495;-69
2022/01/02 11:13:20;;;;;;;11.20;4.60;;;13.40;99.40;;;;;;5046492;28;20041;-69
2022/01/02 11:15:46;;;;;;;13.02;4.70;;;13.30;99.50;;;;;;5045791;28;20033;-69
2022/01/02 11:18:13;;;;;;;12.15;3.95;;;13.20;99.50;;;;;;5043636;28;20561;-70
2022/01/02 11:20:40;;;;;;;10.77;4.43;;;13.20;99.60;;;;;;5036059;28;20037;-69
2022/01/02 11:23:22;;;;;;;9.95;4.13;;;13.20;99.70;;;;;;5035471;28;20573;-72
2022/01/02 11:26:06;;;;;;;12.63;4.32;;;13.10;99.80;;;;;;5035981;28;20029;-68
2022/01/02 11:28:49;;;;;;;9.20;3.78;;;13.10;99.90;;;;;;5035614;28;20107;-68
2022/01/02 11:31:35;;;;;;;16.17;4.80;;;13.10;99.90;;;;;;5034726;28;20053;-73
2022/01/02 11:34:19;;;;;;;8.73;3.95;;;13.00;99.90;;;;;;5036470;28;20276;-69
2022/01/02 11:36:44;;;;;;;6.47;3.20;;;13.00;99.90;;;;;;5035866;28;20034;-65
2022/01/02 11:39:11;;;;;;;14.50;3.53;;;13.00;99.90;;;;;;5036996;28;20041;-69
2022/01/02 11:41:46;;;;;;;8.90;3.10;;;13.00;99.80;;;;;;5036954;28;20113;-92
2022/01/02 11:44:14;;;;;;;13.35;4.30;;;13.00;99.80;;;;;;5034707;28;20090;-78
2022/01/02 11:46:48;;;;;;;15.07;4.65;;;13.00;99.80;;;;;;5034233;28;20029;-74
2022/01/02 11:49:41;;;;;;;9.65;3.55;;;13.00;99.70;;;;;;5034643;28;20492;-77
2022/01/02 11:52:23;;;;;;;10.60;3.95;;;13.00;99.70;;;;;;5035564;28;20068;-80
2022/01/02 11:54:51;;;;;;;10.95;3.88;;;13.00;99.70;;;;;;5038573;28;20490;-75
2022/01/02 11:57:19;;;;;;;13.00;3.60;;;13.00;99.70;;;;;;5037112;28;20119;-82
2022/01/02 11:59:46;;;;;;;7.10;2.92;;;13.00;99.70;;;;;;5039314;28;20030;-84
2022/01/02 12:02:14;;;;;;;12.80;4.15;;;13.00;99.70;;;;;;5035668;28;20038;-79
2022/01/02 12:05:11;;;;;;;11.25;4.00;;;13.00;99.60;;;;;;5035749;28;20108;-85
2022/01/02 12:07:50;;;;;;;7.13;2.90;;;13.00;99.60;;;;;;5034805;28;20037;-86
2022/01/02 12:10:16;;;;;;;13.30;3.28;;;13.00;99.60;;;;;;5037208;28;20035;-78
2022/01/02 12:12:59;;;;;;;8.43;3.25;;;13.00;99.50;;;;;;5043891;28;20032;-80
2022/01/02 12:15:31;;;;;;;15.40;4.00;;;13.00;99.50;;;;;;5033434;28;20030;-77
2022/01/02 12:18:29;;;;;;;13.38;3.47;;;13.00;99.50;;;;;;5033646;28;20025;-88
2022/01/02 12:20:57;;;;;;;14.98;4.03;;;13.00;99.50;;;;;;5034477;28;20035;-74
2022/01/02 12:23:34;;;;;;;12.32;4.32;;;13.00;99.40;;;;;;5037143;28;20436;-70
2022/01/02 12:26:09;;;;;;;10.90;3.40;;;12.90;99.50;;;;;;5047855;28;20025;-80
2022/01/02 12:28:57;;;;;;;16.23;3.25;;;12.80;99.40;;;;;;5049087;28;20487;-74
2022/01/02 12:31:38;;;;;;;8.98;3.38;;;12.90;99.60;;;;;;5046985;28;20045;-69
2022/01/02 12:34:18;;;;;;;10.18;4.00;;;12.80;99.50;;;;;;5051582;28;20499;-68
2022/01/02 12:36:49;;;;;;;15.95;4.30;;;12.80;99.40;;;;;;5044204;28;20025;-68
2022/01/02 12:39:37;;;;;;;16.85;3.35;;;12.70;99.50;;;;;;5040891;28;20552;-68
2022/01/02 12:42:11;;;;;;;15.52;3.60;;;12.80;99.60;;;;;;5035116;28;20057;-68
2022/01/02 12:44:37;;;;;;;8.70;3.22;;;12.70;99.60;;;;;;5045791;28;20076;-68
2022/01/02 12:47:05;;;;;;;16.70;3.60;;;12.70;99.50;;;;;;5044370;28;20028;-69
2022/01/02 12:49:33;;;;;;;10.88;3.22;;;12.70;99.50;;;;;;5052345;28;20037;-69
2022/01/02 12:52:04;;;;;;;11.13;3.58;;;12.70;99.30;;;;;;5041289;28;20034;-69
2022/01/02 12:54:36;;;;;;;12.93;3.92;;;12.70;99.20;;;;;;5035577;28;20126;-68
2022/01/02 12:59:56;;;;;;;9.10;3.03;;;12.60;99.20;;;;;;5031609;28;20052;-68
2022/01/02 13:02:25;;;;;;;8.70;2.75;;;12.50;99.20;;;;;;5033376;28;20452;-68
2022/01/02 13:04:54;;;;;;;9.00;2.88;;;12.50;99.30;;;;;;5031606;28;20080;-69
2022/01/02 13:07:35;;;;;;;11.25;3.30;;;12.50;99.20;;;;;;5031813;28;20068;-68
2022/01/02 13:10:07;;;;;;;10.90;3.20;;;12.50;99.20;;;;;;5033840;28;20106;-69
2022/01/02 13:12:35;;;;;;;9.80;3.00;;;12.50;99.20;;;;;;5034388;28;20480;-69